Time;durP1;ratioP1;P1;durP2;ratioP2;P2;SDS_P1;SDS_P2;PMS_P1;PMS_P2;Temp;Humidity;BMP_temperature;BMP_pressure;BME280_temperature;BME280_humidity;BME280_pressure;Samples;Min_cycle;Max_cycle;Signal;HPM_P1;HPM_P2
2022/12/25 00:00:28;;;;;;;40.15;18.40;;;6.30;72.00;;;;;;4754009;29;117249;-83
2022/12/25 00:02:55;;;;;;;62.60;28.67;;;6.30;72.00;;;;;;4741227;29;116067;-83
2022/12/25 00:05:22;;;;;;;33.30;16.83;;;6.30;72.10;;;;;;4741318;29;114702;-83
2022/12/25 00:07:50;;;;;;;28.48;15.02;;;6.30;72.00;;;;;;4739906;29;116532;-84
2022/12/25 00:10:17;;;;;;;30.35;14.23;;;6.40;72.10;;;;;;4737577;29;117564;-83
2022/12/25 00:12:45;;;;;;;33.75;16.27;;;6.30;72.20;;;;;;4739140;29;115152;-83
2022/12/25 00:15:12;;;;;;;22.45;10.48;;;6.30;72.30;;;;;;4740869;29;115942;-83
2022/12/25 00:17:39;;;;;;;22.15;11.73;;;6.40;72.20;;;;;;4709371;29;118126;-84
2022/12/25 00:20:07;;;;;;;15.10;8.43;;;6.30;72.30;;;;;;4740019;29;114661;-83
2022/12/25 00:22:34;;;;;;;18.75;9.35;;;6.30;72.40;;;;;;4739395;29;114703;-83
2022/12/25 00:25:01;;;;;;;21.35;10.13;;;6.30;72.40;;;;;;4754469;29;114613;-83
2022/12/25 00:27:32;;;;;;;21.20;10.15;;;6.40;72.50;;;;;;4738162;29;118269;-82
2022/12/25 00:30:00;;;;;;;19.23;9.20;;;6.40;72.40;;;;;;4753448;29;114749;-83
2022/12/25 00:32:27;;;;;;;15.27;7.90;;;6.40;72.40;;;;;;4740585;29;115670;-83
2022/12/25 00:34:54;;;;;;;15.15;7.43;;;6.40;72.40;;;;;;4739540;29;116278;-83
2022/12/25 00:37:22;;;;;;;19.85;7.57;;;6.40;72.50;;;;;;4739085;29;115686;-83
2022/12/25 00:39:49;;;;;;;14.73;6.75;;;6.40;72.40;;;;;;4723576;29;118592;-83
2022/12/25 00:42:17;;;;;;;12.63;6.03;;;6.40;72.50;;;;;;4739130;29;115593;-82
2022/12/25 00:44:48;;;;;;;14.93;6.28;;;6.40;72.50;;;;;;4739066;29;114504;-82
2022/12/25 00:47:16;;;;;;;11.27;4.55;;;6.40;72.60;;;;;;4753230;29;115128;-82
2022/12/25 00:49:43;;;;;;;16.60;5.63;;;6.40;72.60;;;;;;4738312;29;116519;-83
2022/12/25 00:52:10;;;;;;;11.85;5.15;;;6.40;72.50;;;;;;4739054;29;114400;-83
2022/12/25 00:54:38;;;;;;;11.55;4.60;;;6.40;72.50;;;;;;4754179;29;114724;-83
2022/12/25 00:57:05;;;;;;;10.27;4.60;;;6.40;72.50;;;;;;4736342;29;115442;-82
2022/12/25 00:59:33;;;;;;;8.05;4.63;;;6.40;72.50;;;;;;4738269;29;114729;-81
2022/12/25 01:02:22;;;;;;;10.75;4.80;;;6.40;72.60;;;;;;4737125;29;114645;-82
2022/12/25 01:04:56;;;;;;;12.13;4.75;;;6.40;72.60;;;;;;4738874;29;114548;-83
2022/12/25 01:07:24;;;;;;;11.70;4.45;;;6.40;72.60;;;;;;4737932;29;115577;-82
2022/12/25 01:12:39;;;;;;;11.20;4.70;;;6.40;72.60;;;;;;4750589;29;115165;-83
2022/12/25 01:15:08;;;;;;;10.43;4.93;;;6.40;72.60;;;;;;4738750;29;114516;-83
2022/12/25 01:17:35;;;;;;;11.63;4.72;;;6.40;72.60;;;;;;4737873;29;115330;-83
2022/12/25 01:20:03;;;;;;;11.43;4.78;;;6.40;72.70;;;;;;4753258;29;114674;-83
2022/12/25 01:22:30;;;;;;;13.30;4.82;;;6.40;72.60;;;;;;4738998;29;114756;-83
2022/12/25 01:24:57;;;;;;;11.27;5.00;;;6.40;72.60;;;;;;4724341;29;115519;-83
2022/12/25 01:27:24;;;;;;;9.38;4.50;;;6.40;72.70;;;;;;4752318;29;115644;-82
2022/12/25 01:29:52;;;;;;;12.48;5.65;;;6.40;72.70;;;;;;4723187;29;114766;-83
2022/12/25 01:32:19;;;;;;;11.07;5.03;;;6.40;72.60;;;;;;4723634;29;114792;-82
2022/12/25 01:34:46;;;;;;;10.68;5.05;;;6.40;72.60;;;;;;4739955;29;114600;-82
2022/12/25 01:37:23;;;;;;;9.98;5.13;;;6.40;72.60;;;;;;4751429;29;115779;-82
2022/12/25 01:39:50;;;;;;;10.27;4.80;;;6.50;72.60;;;;;;4735749;29;114773;-82
2022/12/25 01:42:19;;;;;;;9.38;4.68;;;6.50;72.60;;;;;;4738655;29;114557;-81
2022/12/25 01:44:47;;;;;;;13.45;4.50;;;6.50;72.50;;;;;;4740465;29;114440;-83
2022/12/25 01:47:15;;;;;;;12.27;5.45;;;6.50;72.50;;;;;;4739099;29;115460;-84
2022/12/25 01:49:45;;;;;;;9.57;5.28;;;6.40;72.60;;;;;;4723406;29;114707;-81
2022/12/25 01:52:18;;;;;;;8.88;4.95;;;6.40;72.60;;;;;;4723711;29;114507;-83
2022/12/25 01:54:59;;;;;;;12.98;5.05;;;6.50;72.60;;;;;;4753109;29;114514;-82
2022/12/25 01:57:31;;;;;;;16.83;5.40;;;6.50;72.70;;;;;;4737539;29;115233;-81
2022/12/25 01:59:58;;;;;;;10.52;4.82;;;6.50;72.60;;;;;;4737719;29;114720;-82
2022/12/25 02:02:26;;;;;;;9.65;5.07;;;6.40;72.60;;;;;;4723757;29;116106;-82
2022/12/25 02:05:09;;;;;;;9.38;4.55;;;6.50;72.60;;;;;;4724083;29;114728;-82
2022/12/25 02:07:36;;;;;;;10.38;5.40;;;6.50;72.60;;;;;;4751841;29;115226;-82
2022/12/25 02:10:04;;;;;;;13.73;5.00;;;6.50;72.60;;;;;;4719303;29;114591;-82
2022/12/25 02:12:32;;;;;;;12.30;5.38;;;6.50;72.60;;;;;;4739787;29;114445;-82
2022/12/25 02:15:12;;;;;;;10.68;4.75;;;6.50;72.50;;;;;;4738034;29;117307;-82
2022/12/25 02:18:53;;;;;;;13.10;4.90;;;6.50;72.50;;;;;;4733068;29;115281;-82
2022/12/25 02:21:54;;;;;;;11.07;5.05;;;6.50;72.30;;;;;;4720106;29;116025;-82
2022/12/25 02:24:48;;;;;;;12.65;5.10;;;6.50;72.50;;;;;;4710508;29;114460;-82
2022/12/25 02:28:06;;;;;;;8.18;5.15;;;6.40;72.50;;;;;;4722697;29;114824;-82
2022/12/25 02:30:41;;;;;;;11.07;4.60;;;6.50;72.50;;;;;;4737678;29;116747;-82
2022/12/25 02:36:03;;;;;;;10.48;4.85;;;6.40;72.50;;;;;;4737891;29;114715;-82
2022/12/25 02:38:36;;;;;;;10.98;5.35;;;6.40;72.40;;;;;;4720487;29;114475;-82
2022/12/25 02:41:09;;;;;;;11.82;5.15;;;6.40;72.40;;;;;;4736569;29;117945;-82
2022/12/25 03:07:04;;;;;;;9.13;4.07;;;6.20;72.20;;;;;;4728393;29;115726;-81
2022/12/25 03:13:18;;;;;;;8.40;4.13;;;6.20;72.00;;;;;;4716295;29;114649;-81
2022/12/25 03:18:32;;;;;;;11.25;4.20;;;6.10;72.00;;;;;;4738845;29;115102;-82
2022/12/25 03:26:53;;;;;;;13.27;6.00;;;6.10;72.10;;;;;;4739118;29;115131;-82
2022/12/25 03:32:24;;;;;;;11.77;5.70;;;6.10;72.10;;;;;;4753081;29;114532;-82
2022/12/25 03:35:22;;;;;;;13.95;6.43;;;6.00;72.10;;;;;;4756119;29;114324;-82
2022/12/25 04:38:02;;;;;;;22.55;13.52;;;5.60;72.00;;;;;;4739806;29;119249;-83
2022/12/25 04:40:29;;;;;;;24.85;14.20;;;5.60;72.00;;;;;;4739148;29;114657;-83
2022/12/25 04:42:56;;;;;;;28.38;13.88;;;5.60;72.00;;;;;;4739594;29;114409;-83
2022/12/25 04:45:23;;;;;;;21.95;12.98;;;5.60;72.00;;;;;;4739805;29;115112;-83
2022/12/25 04:47:51;;;;;;;22.05;13.13;;;5.60;71.90;;;;;;4751469;29;114962;-83
2022/12/25 04:50:18;;;;;;;24.83;14.40;;;5.60;71.90;;;;;;4739662;29;115464;-83
2022/12/25 04:52:45;;;;;;;21.77;13.35;;;5.50;71.90;;;;;;4738061;29;114399;-83
2022/12/25 04:55:12;;;;;;;19.88;14.15;;;5.60;71.90;;;;;;4739341;29;115403;-83
2022/12/25 04:57:40;;;;;;;25.33;14.73;;;5.50;71.90;;;;;;4739622;29;115310;-82
2022/12/25 05:00:08;;;;;;;22.05;13.70;;;5.50;71.90;;;;;;4740546;29;114515;-83
2022/12/25 05:02:35;;;;;;;21.00;13.60;;;5.40;71.80;;;;;;4752759;29;114811;-83
2022/12/25 05:05:03;;;;;;;25.73;14.77;;;5.40;71.80;;;;;;4738710;29;115310;-83
2022/12/25 05:07:30;;;;;;;25.48;15.10;;;5.40;71.90;;;;;;4751776;29;114705;-83
2022/12/25 05:09:57;;;;;;;24.13;14.75;;;5.30;71.90;;;;;;4738896;29;114610;-83
2022/12/25 05:12:24;;;;;;;25.13;15.25;;;5.30;71.90;;;;;;4740108;29;114657;-83
2022/12/25 05:14:51;;;;;;;28.48;17.38;;;5.20;71.90;;;;;;4739137;29;115163;-83
2022/12/25 05:17:18;;;;;;;29.33;15.52;;;5.20;72.00;;;;;;4739172;29;115109;-83
2022/12/25 05:19:45;;;;;;;23.67;14.85;;;5.20;72.10;;;;;;4753304;29;114740;-82
2022/12/25 05:22:13;;;;;;;26.70;15.05;;;5.20;72.10;;;;;;4751838;29;114617;-83
2022/12/25 05:24:40;;;;;;;24.70;15.18;;;5.10;72.10;;;;;;4738960;29;115100;-83
2022/12/25 05:27:07;;;;;;;24.40;14.70;;;5.10;72.10;;;;;;4738823;29;115470;-83
2022/12/25 05:29:34;;;;;;;24.98;15.25;;;5.10;72.10;;;;;;4738210;29;114938;-83
2022/12/25 05:32:01;;;;;;;25.48;14.98;;;5.00;72.10;;;;;;4737246;29;114474;-83
2022/12/25 05:34:28;;;;;;;29.27;15.27;;;5.00;72.20;;;;;;4737601;29;115647;-83
2022/12/25 05:36:55;;;;;;;25.55;15.25;;;5.00;72.30;;;;;;4737916;29;114680;-83
2022/12/25 05:39:23;;;;;;;22.60;15.60;;;4.90;72.40;;;;;;4738614;29;114767;-83
2022/12/25 05:41:50;;;;;;;27.05;15.07;;;4.90;72.40;;;;;;4753430;29;114449;-83
2022/12/25 05:44:17;;;;;;;23.88;14.00;;;4.90;72.40;;;;;;4752319;29;115179;-83
2022/12/25 05:46:44;;;;;;;28.20;16.17;;;4.80;72.40;;;;;;4737871;29;114727;-83
2022/12/25 05:49:12;;;;;;;23.08;13.00;;;4.80;72.40;;;;;;4739781;29;114927;-83
2022/12/25 05:51:39;;;;;;;25.38;15.75;;;4.80;72.30;;;;;;4739590;29;114422;-82
2022/12/25 05:54:06;;;;;;;24.20;14.30;;;4.70;72.40;;;;;;4738550;29;115670;-83
2022/12/25 05:56:33;;;;;;;26.23;15.32;;;4.70;72.40;;;;;;4739381;29;114607;-83
2022/12/25 05:59:00;;;;;;;30.83;15.32;;;4.60;72.50;;;;;;4724065;29;114617;-83
2022/12/25 06:01:28;;;;;;;24.85;14.70;;;4.60;72.60;;;;;;4739831;29;114699;-82
2022/12/25 06:03:56;;;;;;;24.60;13.60;;;4.60;72.70;;;;;;4737829;29;115000;-83
2022/12/25 06:06:23;;;;;;;21.95;13.73;;;4.50;72.80;;;;;;4752543;29;114683;-83
2022/12/25 06:08:53;;;;;;;22.83;14.23;;;4.50;72.90;;;;;;4743162;29;114334;-82
2022/12/25 06:11:21;;;;;;;21.17;14.35;;;4.50;72.90;;;;;;4755017;29;114400;-82
2022/12/25 06:13:50;;;;;;;25.65;13.68;;;4.40;72.90;;;;;;4736790;29;115632;-83
2022/12/25 06:16:17;;;;;;;22.73;13.80;;;4.40;73.00;;;;;;4736626;29;114738;-83
2022/12/25 06:18:47;;;;;;;27.65;14.80;;;4.40;73.00;;;;;;4737463;29;114582;-83
2022/12/25 06:21:14;;;;;;;22.17;14.35;;;4.30;73.00;;;;;;4751102;29;114675;-83
2022/12/25 06:23:41;;;;;;;27.63;14.20;;;4.40;73.10;;;;;;4751978;29;115835;-83
2022/12/25 06:26:12;;;;;;;28.23;16.95;;;4.30;73.10;;;;;;4705560;29;115954;-83
2022/12/25 06:28:39;;;;;;;31.63;15.43;;;4.30;73.20;;;;;;4735340;29;114497;-83
2022/12/25 06:31:16;;;;;;;27.63;15.43;;;4.30;73.20;;;;;;4737141;29;115514;-83
2022/12/25 06:33:43;;;;;;;28.65;14.40;;;4.30;73.30;;;;;;4751079;29;115698;-83
2022/12/25 06:36:21;;;;;;;29.42;15.80;;;4.30;73.30;;;;;;4750157;29;115964;-83
2022/12/25 06:38:48;;;;;;;31.83;14.75;;;4.30;73.40;;;;;;4750848;29;116235;-82
2022/12/25 06:41:21;;;;;;;30.83;16.52;;;4.20;73.20;;;;;;4752054;29;116683;-83
2022/12/25 06:43:50;;;;;;;27.02;14.00;;;4.20;73.40;;;;;;4722424;29;115576;-83
2022/12/25 06:46:17;;;;;;;26.63;14.13;;;4.20;73.40;;;;;;4751782;29;114663;-83
2022/12/25 06:48:48;;;;;;;26.42;14.38;;;4.10;73.50;;;;;;4738003;29;116493;-83
2022/12/25 06:51:21;;;;;;;17.85;9.77;;;4.10;73.50;;;;;;4738079;29;114623;-83
2022/12/25 06:53:49;;;;;;;15.38;10.60;;;4.10;73.40;;;;;;4736918;29;116944;-82
2022/12/25 06:56:19;;;;;;;17.90;9.85;;;4.10;73.40;;;;;;4751746;29;114672;-83
2022/12/25 06:58:49;;;;;;;19.95;10.52;;;4.10;73.50;;;;;;4752373;29;114718;-83
2022/12/25 07:01:24;;;;;;;18.48;10.50;;;4.10;73.50;;;;;;4738108;29;114882;-83
2022/12/25 07:03:57;;;;;;;19.42;10.50;;;4.10;73.50;;;;;;4736945;29;115112;-82
2022/12/25 07:06:24;;;;;;;20.45;11.52;;;4.10;73.50;;;;;;4736404;29;115265;-83
2022/12/25 07:08:51;;;;;;;20.23;11.38;;;4.10;73.50;;;;;;4721973;29;114760;-82
2022/12/25 07:11:19;;;;;;;14.85;9.88;;;4.10;73.40;;;;;;4752241;29;114540;-83
2022/12/25 07:13:46;;;;;;;18.58;10.45;;;4.10;73.40;;;;;;4751358;29;115795;-82
2022/12/25 07:16:13;;;;;;;17.10;11.40;;;4.10;73.40;;;;;;4736059;29;115320;-83
2022/12/25 07:18:41;;;;;;;17.45;10.70;;;4.10;73.40;;;;;;4721320;29;114810;-83
2022/12/25 07:21:11;;;;;;;15.52;10.30;;;4.10;73.40;;;;;;4738509;29;114453;-83
2022/12/25 07:23:39;;;;;;;15.77;10.27;;;4.20;73.40;;;;;;4737710;29;115742;-83
2022/12/25 07:26:06;;;;;;;16.55;11.32;;;4.20;73.30;;;;;;4751250;29;114895;-83
2022/12/25 07:28:33;;;;;;;16.75;10.30;;;4.30;73.30;;;;;;4737348;29;116131;-83
2022/12/25 07:31:14;;;;;;;15.25;9.90;;;4.30;73.20;;;;;;4739754;29;114628;-83
2022/12/25 07:33:42;;;;;;;18.50;11.65;;;4.40;73.10;;;;;;4737579;29;115261;-82
2022/12/25 07:36:10;;;;;;;21.75;11.98;;;4.50;73.00;;;;;;4739229;29;114787;-82
2022/12/25 07:38:41;;;;;;;19.63;12.02;;;4.60;72.90;;;;;;4725464;29;114553;-82
2022/12/25 07:41:11;;;;;;;18.17;12.32;;;4.60;72.80;;;;;;4741486;29;114474;-82
2022/12/25 07:43:39;;;;;;;19.00;10.32;;;4.70;72.60;;;;;;4753979;29;115338;-82
2022/12/25 07:46:06;;;;;;;17.75;10.10;;;4.70;72.50;;;;;;4739120;29;115029;-82
2022/12/25 07:48:34;;;;;;;16.38;9.70;;;4.70;72.50;;;;;;4724870;29;114551;-83
2022/12/25 07:51:04;;;;;;;21.20;10.68;;;4.70;72.40;;;;;;4739680;29;114887;-82
2022/12/25 07:53:31;;;;;;;13.18;8.55;;;4.80;72.30;;;;;;4723836;29;115216;-82
2022/12/25 07:56:01;;;;;;;15.55;8.80;;;4.80;72.30;;;;;;4751672;29;115666;-82
2022/12/25 07:58:28;;;;;;;14.23;8.65;;;4.90;72.20;;;;;;4724882;29;114589;-82
2022/12/25 08:01:02;;;;;;;14.57;9.43;;;4.90;72.10;;;;;;4739639;29;114695;-82
2022/12/25 08:03:30;;;;;;;;;;;5.00;71.90;;;;;;4738762;29;114963;-82
2022/12/25 08:06:03;;;;;;;18.20;9.63;;;5.10;72.10;;;;;;4753271;29;114546;-82
2022/12/25 08:08:30;;;;;;;16.00;9.73;;;5.10;72.00;;;;;;4740734;29;118954;-83
2022/12/25 08:10:57;;;;;;;17.67;10.15;;;5.20;71.70;;;;;;4739108;29;114476;-83
2022/12/25 08:13:25;;;;;;;15.20;9.30;;;5.30;71.60;;;;;;4737548;29;115411;-83
2022/12/25 08:15:59;;;;;;;11.68;8.05;;;5.40;71.40;;;;;;4737052;29;117561;-83
2022/12/25 08:18:31;;;;;;;13.73;9.07;;;5.40;71.20;;;;;;4738931;29;114641;-83
2022/12/25 08:21:06;;;;;;;14.00;9.15;;;5.50;71.10;;;;;;4722879;29;114498;-83
2022/12/25 08:23:34;;;;;;;13.57;8.85;;;5.50;70.90;;;;;;4737337;29;115618;-82
2022/12/25 08:26:01;;;;;;;11.77;8.65;;;5.60;70.80;;;;;;4738037;29;116352;-83
2022/12/25 08:28:32;;;;;;;14.10;9.02;;;5.60;70.70;;;;;;4738402;29;114824;-83
2022/12/25 08:31:04;;;;;;;12.95;8.43;;;5.60;70.50;;;;;;4753596;29;119199;-83
2022/12/25 08:33:31;;;;;;;14.13;8.60;;;5.70;70.40;;;;;;4739081;29;115781;-83
2022/12/25 08:36:11;;;;;;;14.80;9.27;;;5.70;70.30;;;;;;4739795;29;114589;-83
2022/12/25 08:38:40;;;;;;;13.90;8.13;;;5.70;70.20;;;;;;4752298;29;115367;-83
2022/12/25 08:41:07;;;;;;;12.82;8.05;;;5.70;70.40;;;;;;4752641;29;114365;-83
2022/12/25 08:43:35;;;;;;;13.00;8.38;;;5.70;70.40;;;;;;4737267;29;116272;-83
2022/12/25 08:46:20;;;;;;;14.73;7.93;;;5.80;70.40;;;;;;4722942;29;118689;-83
2022/12/25 08:49:02;;;;;;;13.55;8.52;;;5.80;70.20;;;;;;4738750;29;114357;-83
2022/12/25 08:51:45;;;;;;;15.23;8.48;;;5.80;70.20;;;;;;4739803;29;114474;-83
2022/12/25 08:59:38;;;;;;;15.82;9.18;;;6.00;70.10;;;;;;4656144;30;115395;-83
2022/12/25 09:02:09;;;;;;;13.73;9.18;;;6.00;70.20;;;;;;4667513;30;114542;-82
2022/12/25 09:04:44;;;;;;;16.38;10.45;;;6.10;70.10;;;;;;4652889;30;114957;-83
2022/12/25 09:07:18;;;;;;;13.90;9.45;;;6.20;70.00;;;;;;4635502;30;115505;-83
2022/12/25 09:09:50;;;;;;;15.18;8.95;;;6.20;69.80;;;;;;4649137;30;116869;-83
2022/12/25 09:12:18;;;;;;;14.50;9.18;;;6.20;69.60;;;;;;4635445;30;115021;-83
2022/12/25 09:14:45;;;;;;;19.45;10.63;;;6.30;69.50;;;;;;4650411;30;114477;-83
2022/12/25 09:17:13;;;;;;;15.75;9.77;;;6.40;69.30;;;;;;4693045;29;115117;-83
2022/12/25 09:19:45;;;;;;;14.80;9.88;;;6.30;69.40;;;;;;4672847;29;115087;-82
2022/12/25 09:22:13;;;;;;;19.77;10.55;;;6.40;69.30;;;;;;4702347;29;116707;-82
2022/12/25 09:24:40;;;;;;;17.38;10.77;;;6.40;69.10;;;;;;4683726;29;115826;-84
2022/12/25 09:27:11;;;;;;;16.33;10.85;;;6.40;69.00;;;;;;4683247;29;115156;-84
2022/12/25 09:29:41;;;;;;;14.73;10.85;;;6.50;69.10;;;;;;4717026;29;117313;-82
2022/12/25 09:32:11;;;;;;;16.55;10.27;;;6.60;69.10;;;;;;4705814;29;117028;-83
2022/12/25 09:34:39;;;;;;;19.17;10.70;;;6.60;69.00;;;;;;4720266;29;114494;-84
2022/12/25 09:37:09;;;;;;;15.23;10.55;;;6.70;68.80;;;;;;4705538;29;115570;-84
2022/12/25 09:39:37;;;;;;;17.27;10.40;;;6.70;68.60;;;;;;4738676;29;114697;-84
2022/12/25 09:42:30;;;;;;;16.05;10.35;;;6.70;68.60;;;;;;4738481;29;114463;-84
2022/12/25 09:45:31;;;;;;;16.45;10.07;;;6.80;68.40;;;;;;4724337;29;114575;-84
2022/12/25 09:47:58;;;;;;;16.20;9.43;;;6.80;68.40;;;;;;4724393;29;115244;-84
2022/12/25 09:51:13;;;;;;;15.02;8.82;;;6.80;68.30;;;;;;4739008;29;114785;-82
2022/12/25 09:54:19;;;;;;;17.00;9.55;;;6.80;68.30;;;;;;4704738;29;114775;-83
2022/12/25 09:56:46;;;;;;;15.30;9.35;;;6.80;68.40;;;;;;4693963;29;114459;-83
2022/12/25 09:59:23;;;;;;;16.52;8.70;;;7.00;68.50;;;;;;4704353;29;116142;-83
2022/12/25 10:02:19;;;;;;;13.23;7.50;;;7.10;68.30;;;;;;4701457;29;114939;-84
2022/12/25 10:04:57;;;;;;;13.18;7.80;;;7.10;68.10;;;;;;4751481;29;114437;-83
2022/12/25 10:07:42;;;;;;;11.55;6.40;;;7.20;67.90;;;;;;4739961;29;114494;-83
2022/12/25 10:10:45;;;;;;;11.32;7.15;;;7.20;67.60;;;;;;4752281;29;115275;-83
2022/12/25 10:13:46;;;;;;;13.02;7.30;;;7.20;67.60;;;;;;4737999;29;115908;-82
2022/12/25 10:16:32;;;;;;;13.25;6.95;;;7.20;67.60;;;;;;4753177;29;114682;-82
2022/12/25 10:19:29;;;;;;;13.30;7.05;;;7.30;67.30;;;;;;4752018;29;114397;-83
2022/12/25 10:22:01;;;;;;;12.68;6.25;;;7.20;67.10;;;;;;4737718;29;118030;-83
2022/12/25 10:24:46;;;;;;;11.10;6.30;;;7.20;67.30;;;;;;4737945;29;114866;-83
2022/12/25 10:27:29;;;;;;;10.65;6.25;;;7.20;67.40;;;;;;4738447;29;114754;-84
2022/12/25 10:29:56;;;;;;;12.43;6.82;;;7.20;67.50;;;;;;4739222;29;114562;-83
2022/12/25 10:32:25;;;;;;;10.85;6.13;;;7.20;67.50;;;;;;4723620;29;115155;-83
2022/12/25 10:34:53;;;;;;;10.05;6.18;;;7.20;67.30;;;;;;4752788;29;114700;-83
2022/12/25 10:37:20;;;;;;;12.10;6.45;;;7.20;67.20;;;;;;4739671;29;114427;-83
2022/12/25 10:39:47;;;;;;;10.18;6.40;;;7.20;67.30;;;;;;4738721;29;114710;-83
2022/12/25 10:42:27;;;;;;;11.90;6.88;;;7.20;66.90;;;;;;4737521;29;117101;-83
2022/12/25 10:45:05;;;;;;;11.27;6.82;;;7.20;67.00;;;;;;4737864;29;117542;-83
2022/12/25 10:47:36;;;;;;;12.05;6.53;;;7.10;67.10;;;;;;4738957;29;115057;-84
2022/12/25 10:50:23;;;;;;;11.45;6.15;;;7.10;67.20;;;;;;4738885;29;114503;-82
2022/12/25 10:53:04;;;;;;;10.38;6.47;;;7.10;67.20;;;;;;4708495;29;115179;-83
2022/12/25 10:55:31;;;;;;;10.57;7.20;;;7.00;67.40;;;;;;4739523;29;114707;-83
2022/12/25 10:58:00;;;;;;;12.07;6.85;;;7.00;67.60;;;;;;4709357;29;114873;-83
2022/12/25 11:00:30;;;;;;;10.57;6.78;;;7.10;67.60;;;;;;4738897;29;114508;-83
2022/12/25 11:02:58;;;;;;;11.55;6.13;;;7.10;67.40;;;;;;4722457;29;118092;-83
2022/12/25 11:05:31;;;;;;;11.93;6.50;;;7.10;67.20;;;;;;4741078;29;114676;-84
2022/12/25 11:08:00;;;;;;;11.98;6.88;;;7.10;67.00;;;;;;4743184;29;114387;-84
2022/12/25 11:10:42;;;;;;;13.35;6.65;;;7.10;67.40;;;;;;4742000;29;114590;-83
2022/12/25 11:13:25;;;;;;;11.90;6.53;;;7.10;67.40;;;;;;4740866;29;115159;-85
2022/12/25 11:16:12;;;;;;;10.30;7.05;;;7.10;67.50;;;;;;4711828;29;116108;-84
2022/12/25 11:18:51;;;;;;;10.98;5.72;;;7.10;67.30;;;;;;4756056;29;114486;-84
2022/12/25 11:21:33;;;;;;;11.60;6.60;;;7.10;67.10;;;;;;4711843;29;114642;-83
2022/12/25 11:24:05;;;;;;;10.25;6.40;;;7.10;67.10;;;;;;4755597;29;115245;-83
2022/12/25 11:27:22;;;;;;;12.68;6.10;;;7.00;67.50;;;;;;4738795;29;114501;-84
2022/12/25 11:29:53;;;;;;;11.95;6.32;;;7.00;67.10;;;;;;4741511;29;114422;-84
2022/12/25 11:32:29;;;;;;;11.35;5.90;;;6.90;67.50;;;;;;4754635;29;114500;-83
2022/12/25 11:34:57;;;;;;;10.75;6.45;;;6.90;67.60;;;;;;4752877;29;115960;-84
2022/12/25 11:37:50;;;;;;;10.32;5.97;;;6.80;67.60;;;;;;4725825;29;114865;-83
2022/12/25 11:40:24;;;;;;;9.75;5.97;;;6.80;67.70;;;;;;4741722;29;117418;-83
2022/12/25 11:43:10;;;;;;;10.15;6.13;;;6.80;67.80;;;;;;4740333;29;114618;-83
2022/12/25 11:45:40;;;;;;;9.77;6.30;;;6.80;67.80;;;;;;4737477;29;116543;-82
2022/12/25 11:48:14;;;;;;;9.73;5.45;;;6.80;67.70;;;;;;4741060;29;114636;-83
2022/12/25 11:50:54;;;;;;;8.63;5.10;;;6.80;67.70;;;;;;4738187;29;114431;-83
2022/12/25 11:53:28;;;;;;;9.73;6.10;;;6.70;67.80;;;;;;4738435;29;114480;-84
2022/12/25 11:55:58;;;;;;;;;;;6.70;68.00;;;;;;4722194;29;117858;-84
2022/12/25 11:58:47;;;;;;;9.18;5.63;;;6.70;68.00;;;;;;4732207;29;114675;-84
2022/12/25 12:01:37;;;;;;;9.60;5.90;;;6.80;68.10;;;;;;4738248;29;114414;-83
2022/12/25 12:04:22;;;;;;;10.82;5.78;;;6.80;68.20;;;;;;4737928;29;114426;-83
2022/12/25 12:07:23;;;;;;;9.77;5.07;;;6.80;67.80;;;;;;4739581;29;115159;-83
2022/12/25 12:10:08;;;;;;;8.30;5.00;;;6.80;67.80;;;;;;4737314;29;115890;-83
2022/12/25 12:12:49;;;;;;;10.70;6.40;;;6.80;67.60;;;;;;4721816;29;114557;-83
2022/12/25 12:15:38;;;;;;;12.52;5.35;;;6.70;67.60;;;;;;4740559;29;114887;-82
2022/12/25 12:18:27;;;;;;;9.60;5.38;;;6.80;67.80;;;;;;4754850;29;115144;-82
2022/12/25 12:21:15;;;;;;;9.55;5.15;;;6.80;67.90;;;;;;4740550;29;114939;-82
2022/12/25 12:24:19;;;;;;;9.52;5.47;;;6.80;67.90;;;;;;4741409;29;114766;-82
2022/12/25 12:26:46;;;;;;;10.98;5.55;;;6.90;67.70;;;;;;4739745;29;114410;-84
2022/12/25 12:29:26;;;;;;;11.75;5.90;;;6.80;67.80;;;;;;4720549;29;115157;-84
2022/12/25 12:31:53;;;;;;;10.15;5.55;;;6.90;67.70;;;;;;4724907;29;115032;-83
2022/12/25 12:34:24;;;;;;;8.90;5.07;;;6.90;67.50;;;;;;4740632;29;114617;-82
2022/12/25 12:37:00;;;;;;;9.65;5.57;;;6.90;67.40;;;;;;4740701;29;114667;-82
2022/12/25 12:39:36;;;;;;;11.00;5.85;;;6.80;67.60;;;;;;4710497;29;117563;-83
2022/12/25 12:42:17;;;;;;;9.80;5.65;;;6.80;67.60;;;;;;4725692;29;114962;-83
2022/12/25 12:44:44;;;;;;;9.20;5.70;;;6.80;67.60;;;;;;4736937;29;114406;-82
2022/12/25 12:47:37;;;;;;;11.00;5.75;;;6.80;67.60;;;;;;4739320;29;114954;-83
2022/12/25 12:50:05;;;;;;;11.65;6.70;;;6.90;67.60;;;;;;4751003;29;115243;-83
2022/12/25 12:52:35;;;;;;;9.65;5.28;;;6.80;67.80;;;;;;4739526;29;114795;-83
2022/12/25 12:55:08;;;;;;;11.40;5.80;;;6.90;67.70;;;;;;4740129;29;114525;-82
2022/12/25 12:57:38;;;;;;;10.38;5.93;;;6.90;67.60;;;;;;4753911;29;114460;-82
2022/12/25 13:00:12;;;;;;;9.98;5.97;;;6.90;67.70;;;;;;4753823;29;115696;-82
2022/12/25 13:03:07;;;;;;;11.40;6.55;;;6.90;67.80;;;;;;4739178;29;114710;-84
2022/12/25 13:05:56;;;;;;;12.90;6.63;;;6.90;67.70;;;;;;4739942;29;114874;-84
2022/12/25 13:09:04;;;;;;;10.57;5.90;;;6.90;67.60;;;;;;4740213;29;114699;-83
2022/12/25 13:11:37;;;;;;;13.85;6.30;;;6.90;67.50;;;;;;4738598;29;115969;-83
2022/12/25 13:14:04;;;;;;;9.88;5.63;;;6.80;67.60;;;;;;4724640;29;117690;-83
2022/12/25 13:16:43;;;;;;;11.75;6.53;;;6.80;67.70;;;;;;4741565;29;114420;-84
2022/12/25 13:19:22;;;;;;;11.02;5.88;;;6.80;67.60;;;;;;4740966;29;114461;-84
2022/12/25 13:22:02;;;;;;;9.90;6.35;;;6.80;67.90;;;;;;4738952;29;115147;-83
2022/12/25 13:24:34;;;;;;;10.38;5.97;;;6.80;68.00;;;;;;4753889;29;114672;-83
2022/12/25 13:27:24;;;;;;;11.23;7.05;;;6.80;68.00;;;;;;4754303;29;114374;-82
2022/12/25 13:29:51;;;;;;;11.07;6.90;;;6.80;68.10;;;;;;4711444;29;114867;-82
2022/12/25 13:32:27;;;;;;;10.20;6.10;;;6.80;68.10;;;;;;4725357;29;116596;-83
2022/12/25 13:34:54;;;;;;;10.82;6.88;;;6.90;67.90;;;;;;4741543;29;114710;-82
2022/12/25 13:37:25;;;;;;;9.75;5.95;;;6.80;67.80;;;;;;4740014;29;114563;-82
2022/12/25 13:40:02;;;;;;;12.68;6.68;;;6.80;67.70;;;;;;4710264;29;114899;-83
2022/12/25 13:42:32;;;;;;;13.20;6.38;;;6.80;67.70;;;;;;4738181;29;115326;-83
2022/12/25 13:45:08;;;;;;;9.52;6.30;;;6.70;67.80;;;;;;4723922;29;117997;-83
2022/12/25 13:47:38;;;;;;;11.25;6.70;;;6.70;67.90;;;;;;4739426;29;114923;-83
2022/12/25 13:50:25;;;;;;;10.50;6.80;;;6.70;67.80;;;;;;4754708;29;114602;-83
2022/12/25 13:52:56;;;;;;;11.52;7.25;;;6.70;67.90;;;;;;4753405;29;115158;-83
2022/12/25 13:55:24;;;;;;;14.50;7.18;;;6.70;68.00;;;;;;4738750;29;114671;-83
2022/12/25 13:58:02;;;;;;;12.20;7.38;;;6.60;68.00;;;;;;4739353;29;114529;-82
2022/12/25 14:00:44;;;;;;;11.68;7.43;;;6.60;67.90;;;;;;4753517;29;114435;-82
2022/12/25 14:03:33;;;;;;;14.05;6.65;;;6.60;68.00;;;;;;4724493;29;115702;-83
2022/12/25 14:06:13;;;;;;;11.80;7.18;;;6.50;68.10;;;;;;4738192;29;118734;-83
2022/12/25 14:08:40;;;;;;;13.57;7.07;;;6.40;68.00;;;;;;4752573;29;114357;-82
2022/12/25 14:11:08;;;;;;;10.55;5.82;;;6.30;68.10;;;;;;4753156;29;116570;-82
2022/12/25 14:13:39;;;;;;;12.77;7.15;;;6.30;68.10;;;;;;4737533;29;115632;-82
2022/12/25 14:16:06;;;;;;;13.35;8.30;;;6.20;68.20;;;;;;4707909;29;118485;-83
2022/12/25 14:18:34;;;;;;;13.80;7.40;;;6.10;68.30;;;;;;4739774;29;114408;-82
2022/12/25 14:21:13;;;;;;;13.25;6.97;;;6.10;68.50;;;;;;4724459;29;114363;-83
2022/12/25 14:23:46;;;;;;;12.05;6.72;;;6.10;68.60;;;;;;4753364;29;116021;-83
2022/12/25 14:26:37;;;;;;;12.32;7.18;;;6.00;68.60;;;;;;4723779;29;115138;-83
2022/12/25 14:29:04;;;;;;;12.25;7.20;;;5.90;68.70;;;;;;4739877;29;114447;-83
2022/12/25 14:31:31;;;;;;;12.50;6.93;;;5.80;68.80;;;;;;4741122;29;114615;-83
2022/12/25 14:33:59;;;;;;;17.15;8.48;;;5.80;68.90;;;;;;4724196;29;115160;-83
2022/12/25 14:36:26;;;;;;;16.00;10.48;;;5.80;69.00;;;;;;4723749;29;115966;-83
2022/12/25 14:39:01;;;;;;;20.38;12.40;;;5.80;69.10;;;;;;4734116;29;114317;-83
2022/12/25 14:41:36;;;;;;;19.38;12.15;;;5.80;69.10;;;;;;4743751;29;114406;-83
2022/12/25 14:44:35;;;;;;;16.20;9.18;;;5.80;69.00;;;;;;4754903;29;115175;-83
2022/12/25 14:47:09;;;;;;;14.90;8.00;;;5.80;68.90;;;;;;4741832;29;114849;-83
2022/12/25 14:49:36;;;;;;;15.65;8.70;;;5.60;69.00;;;;;;4752707;29;114301;-83
2022/12/25 14:52:20;;;;;;;11.27;7.07;;;5.60;69.20;;;;;;4754888;29;114633;-83
2022/12/25 14:55:17;;;;;;;11.45;7.82;;;5.50;69.30;;;;;;4750262;29;115211;-83
2022/12/25 14:57:51;;;;;;;13.45;7.45;;;5.60;69.40;;;;;;4737681;29;115102;-83